Time;durP1;ratioP1;P1;durP2;ratioP2;P2;SDS_P1;SDS_P2;PMS_P1;PMS_P2;Temp;Humidity;BMP_temperature;BMP_pressure;BME280_temperature;BME280_humidity;BME280_pressure;Samples;Min_cycle;Max_cycle;Signal;HPM_P1;HPM_P2
2021/07/12 00:01:35;;;;;;;2.10;1.90;;;18.20;75.30;;;;;;5010747;28;20034;-93
2021/07/12 00:04:01;;;;;;;3.10;2.10;;;18.20;75.40;;;;;;5010121;28;20062;-93
2021/07/12 00:06:27;;;;;;;3.40;2.10;;;18.20;75.40;;;;;;5008705;28;20545;-92
2021/07/12 00:08:52;;;;;;;2.83;1.88;;;18.20;75.30;;;;;;5011962;28;20034;-91
2021/07/12 00:11:18;;;;;;;2.72;2.40;;;18.20;75.30;;;;;;5010046;28;20022;-88
2021/07/12 00:13:44;;;;;;;3.00;2.50;;;18.20;75.80;;;;;;5009957;28;20109;-89
2021/07/12 00:16:09;;;;;;;3.10;2.15;;;18.20;75.30;;;;;;5010063;28;20073;-91
2021/07/12 00:18:35;;;;;;;5.40;2.17;;;18.20;75.40;;;;;;5012305;28;20022;-91
2021/07/12 00:21:01;;;;;;;2.45;1.95;;;18.20;75.90;;;;;;5009013;28;20041;-90
2021/07/12 00:23:27;;;;;;;4.38;2.50;;;18.20;75.60;;;;;;5009053;28;20032;-91
2021/07/12 00:25:53;;;;;;;3.40;1.95;;;18.10;75.50;;;;;;5012327;28;20038;-91
2021/07/12 00:28:18;;;;;;;3.80;2.42;;;18.10;75.80;;;;;;5008350;28;20491;-88
2021/07/12 00:30:44;;;;;;;3.20;1.95;;;18.10;75.70;;;;;;5010646;28;20034;-88
2021/07/12 00:33:09;;;;;;;3.53;2.40;;;18.00;75.80;;;;;;5004512;28;20154;-88
2021/07/12 00:35:35;;;;;;;2.90;2.20;;;18.00;75.20;;;;;;5010648;28;20034;-87
2021/07/12 00:38:01;;;;;;;3.28;2.13;;;17.90;76.10;;;;;;5007967;28;20072;-87
2021/07/12 00:40:28;;;;;;;3.50;2.08;;;17.80;75.40;;;;;;5009160;28;20092;-86
2021/07/12 00:42:54;;;;;;;3.38;2.40;;;17.80;75.80;;;;;;5009264;28;20022;-86
2021/07/12 00:45:27;;;;;;;2.92;2.15;;;17.70;75.90;;;;;;5011143;28;20495;-86
2021/07/12 00:47:54;;;;;;;2.15;1.95;;;17.60;75.70;;;;;;4996901;28;20026;-87
2021/07/12 00:50:22;;;;;;;5.53;2.15;;;17.60;76.40;;;;;;5002152;28;20463;-86
2021/07/12 00:52:50;;;;;;;2.95;2.20;;;17.60;76.50;;;;;;5007663;28;20483;-86
2021/07/12 00:55:24;;;;;;;2.67;1.75;;;17.60;76.90;;;;;;5010218;28;20030;-86
2021/07/12 00:57:50;;;;;;;2.60;1.85;;;17.60;76.70;;;;;;5011125;28;20503;-87
2021/07/12 01:00:18;;;;;;;2.53;2.33;;;17.70;77.90;;;;;;5009992;28;20125;-88
2021/07/12 01:02:44;;;;;;;2.45;1.85;;;17.70;76.40;;;;;;5009278;28;20490;-91
2021/07/12 01:05:13;;;;;;;3.10;2.10;;;17.70;76.30;;;;;;5010897;28;20025;-90
2021/07/12 01:07:41;;;;;;;3.05;2.03;;;17.70;76.50;;;;;;5009674;28;20037;-91
2021/07/12 01:10:07;;;;;;;3.65;2.30;;;17.60;75.60;;;;;;4993092;28;20022;-89
2021/07/12 01:13:01;;;;;;;5.05;1.92;;;17.50;75.80;;;;;;5011976;28;20410;-92
2021/07/12 01:15:32;;;;;;;3.60;2.10;;;17.50;76.00;;;;;;5010340;28;20064;-89
2021/07/12 01:17:58;;;;;;;2.85;2.08;;;17.40;77.20;;;;;;5008434;28;20087;-88
2021/07/12 01:21:05;;;;;;;3.28;2.00;;;17.40;77.20;;;;;;5007504;28;20483;-90
2021/07/12 01:24:09;;;;;;;2.97;1.85;;;17.40;77.00;;;;;;5003192;28;20148;-88
2021/07/12 01:26:56;;;;;;;2.70;1.95;;;17.40;76.70;;;;;;4934305;29;20034;-90
2021/07/12 01:29:30;;;;;;;2.40;1.92;;;17.40;76.50;;;;;;4951467;29;20047;-92
2021/07/12 01:32:13;;;;;;;3.22;2.10;;;17.30;76.60;;;;;;4935528;29;20035;-90
2021/07/12 01:34:49;;;;;;;3.42;2.00;;;17.40;76.60;;;;;;4935787;29;20074;-90
2021/07/12 01:37:38;;;;;;;3.30;1.98;;;17.40;77.40;;;;;;4952249;29;20062;-91
2021/07/12 01:40:09;;;;;;;3.63;1.90;;;17.40;76.90;;;;;;4935066;29;20050;-89
2021/07/12 01:42:53;;;;;;;2.08;1.83;;;17.40;77.20;;;;;;4931891;29;20027;-90
2021/07/12 01:45:21;;;;;;;2.50;1.90;;;17.50;76.80;;;;;;4937985;29;20091;-88
2021/07/12 01:48:07;;;;;;;3.70;2.00;;;17.40;77.20;;;;;;4933089;29;20050;-89
2021/07/12 01:50:47;;;;;;;2.83;1.92;;;17.40;76.60;;;;;;4947898;29;20427;-88
2021/07/12 01:53:20;;;;;;;2.90;2.25;;;17.40;76.70;;;;;;4950967;29;20036;-88
2021/07/12 01:56:06;;;;;;;3.22;2.30;;;17.40;76.80;;;;;;4934705;29;20089;-88
2021/07/12 01:58:52;;;;;;;2.85;1.90;;;17.40;76.90;;;;;;4934990;28;20046;-89
2021/07/12 02:01:21;;;;;;;2.45;1.80;;;17.40;76.80;;;;;;4988692;28;20041;-88
2021/07/12 02:03:47;;;;;;;4.63;2.10;;;17.40;76.90;;;;;;5013067;28;20034;-89
2021/07/12 02:06:13;;;;;;;3.08;1.83;;;17.40;77.00;;;;;;5013398;28;20029;-88
2021/07/12 02:08:46;;;;;;;3.25;2.20;;;17.40;77.30;;;;;;5011976;28;20030;-89
2021/07/12 02:11:15;;;;;;;5.45;2.17;;;17.40;78.00;;;;;;5011723;28;20124;-90
2021/07/12 02:13:43;;;;;;;2.55;2.17;;;17.40;77.30;;;;;;5013121;28;20022;-88
2021/07/12 02:16:10;;;;;;;3.70;2.22;;;17.40;77.30;;;;;;5010162;28;20038;-88
2021/07/12 02:18:36;;;;;;;3.10;2.03;;;17.40;78.20;;;;;;5015313;28;20026;-89
2021/07/12 02:21:03;;;;;;;3.83;2.10;;;17.40;77.30;;;;;;5010559;28;20034;-88
2021/07/12 02:23:30;;;;;;;3.20;2.17;;;17.40;77.50;;;;;;5010379;28;20025;-89
2021/07/12 02:25:58;;;;;;;3.22;2.28;;;17.40;78.30;;;;;;5008619;28;20041;-94
2021/07/12 02:28:25;;;;;;;4.00;2.00;;;17.40;77.10;;;;;;5011135;28;20040;-93
2021/07/12 02:30:52;;;;;;;5.20;1.98;;;17.40;77.40;;;;;;5013463;28;20084;-92
2021/07/12 02:33:19;;;;;;;3.28;1.90;;;17.40;77.30;;;;;;5012360;28;20026;-94
2021/07/12 02:35:45;;;;;;;2.33;2.10;;;17.40;77.30;;;;;;5012102;28;20038;-92
2021/07/12 02:38:11;;;;;;;2.38;2.10;;;17.30;77.00;;;;;;5012399;28;20021;-92
2021/07/12 02:40:37;;;;;;;3.15;2.15;;;17.30;77.20;;;;;;5010689;28;20030;-92
2021/07/12 02:43:04;;;;;;;3.03;1.80;;;17.30;77.70;;;;;;5011371;28;20144;-88
2021/07/12 02:45:31;;;;;;;3.22;2.20;;;17.20;77.30;;;;;;5012903;28;20026;-91
2021/07/12 02:47:57;;;;;;;3.03;2.10;;;17.20;77.40;;;;;;5000287;28;20026;-91
2021/07/12 02:50:27;;;;;;;2.50;2.13;;;17.20;77.50;;;;;;5005277;28;20543;-90
2021/07/12 02:53:05;;;;;;;2.28;1.83;;;17.20;77.60;;;;;;5011800;28;20055;-92
2021/07/12 02:55:31;;;;;;;3.15;2.10;;;17.20;78.20;;;;;;5011333;28;20669;-90
2021/07/12 02:57:56;;;;;;;4.03;2.25;;;17.20;77.90;;;;;;5013168;28;20029;-89
2021/07/12 03:00:22;;;;;;;2.25;1.75;;;17.20;77.70;;;;;;5012985;28;20391;-88
2021/07/12 03:02:48;;;;;;;5.30;2.20;;;17.20;78.30;;;;;;5012936;28;20034;-91
2021/07/12 03:05:13;;;;;;;3.45;2.10;;;17.20;77.70;;;;;;5011749;28;20026;-92
2021/07/12 03:07:44;;;;;;;3.33;2.10;;;17.20;77.90;;;;;;5012061;28;20390;-93
2021/07/12 03:10:22;;;;;;;2.63;1.95;;;17.20;77.90;;;;;;4995062;28;20034;-93
2021/07/12 03:12:51;;;;;;;3.65;2.40;;;17.20;78.30;;;;;;5013624;28;20029;-93
2021/07/12 03:15:21;;;;;;;3.08;2.10;;;17.20;77.90;;;;;;5007594;28;20048;-93
2021/07/12 03:17:54;;;;;;;2.67;2.15;;;17.20;78.30;;;;;;5011196;28;20495;-93
2021/07/12 03:20:20;;;;;;;;;;;17.20;78.00;;;;;;5011909;28;20032;-93
2021/07/12 03:22:49;;;;;;;3.00;2.10;;;17.20;77.70;;;;;;5013141;28;19909;-93
2021/07/12 03:25:20;;;;;;;3.33;2.58;;;17.20;78.40;;;;;;5013441;28;20034;-91
2021/07/12 03:27:46;;;;;;;3.00;2.10;;;17.20;78.30;;;;;;5011970;28;20080;-93
2021/07/12 03:30:12;;;;;;;4.38;2.25;;;17.20;78.40;;;;;;5012937;28;20050;-91
2021/07/12 03:32:43;;;;;;;3.80;2.47;;;17.20;78.50;;;;;;5009991;28;20403;-92
2021/07/12 03:35:10;;;;;;;3.05;2.30;;;17.20;78.60;;;;;;5010089;28;20040;-89
2021/07/12 03:37:36;;;;;;;3.15;2.00;;;17.20;78.70;;;;;;5012342;28;20033;-89
2021/07/12 03:40:02;;;;;;;3.00;1.98;;;17.20;78.70;;;;;;5009654;28;20148;-89
2021/07/12 03:42:28;;;;;;;3.00;2.15;;;17.20;79.20;;;;;;5012736;28;20022;-89
2021/07/12 03:44:54;;;;;;;3.60;1.90;;;17.20;78.80;;;;;;5009150;28;20512;-89
2021/07/12 03:47:31;;;;;;;4.72;2.10;;;17.20;78.90;;;;;;5010798;28;20033;-90
2021/07/12 03:50:16;;;;;;;2.83;2.15;;;17.30;78.80;;;;;;5009215;28;20030;-89
2021/07/12 03:52:52;;;;;;;3.95;1.92;;;17.30;78.40;;;;;;5012468;28;20045;-89
2021/07/12 03:55:22;;;;;;;3.38;1.90;;;17.20;78.80;;;;;;5011570;28;20045;-91
2021/07/12 03:57:49;;;;;;;3.58;2.00;;;17.30;79.40;;;;;;5010559;28;20121;-90
2021/07/12 04:00:17;;;;;;;2.40;1.92;;;17.20;79.00;;;;;;5012262;28;20029;-90
2021/07/12 04:02:44;;;;;;;3.53;2.03;;;17.20;78.90;;;;;;5009738;28;20030;-89
2021/07/12 04:05:11;;;;;;;3.97;1.90;;;17.20;78.90;;;;;;5009600;28;20025;-88
2021/07/12 04:07:38;;;;;;;3.70;2.03;;;17.20;79.10;;;;;;5009101;28;20581;-90
2021/07/12 04:10:05;;;;;;;3.60;2.17;;;17.20;79.00;;;;;;5009771;28;20398;-88
2021/07/12 04:12:31;;;;;;;4.10;2.03;;;17.10;78.90;;;;;;5011778;28;20037;-89
2021/07/12 04:14:58;;;;;;;3.03;2.20;;;17.10;79.30;;;;;;5009704;28;20442;-89
2021/07/12 04:17:24;;;;;;;3.67;2.00;;;17.10;79.50;;;;;;5008677;28;20028;-88
2021/07/12 04:19:52;;;;;;;6.00;2.30;;;17.10;79.30;;;;;;5008220;28;20022;-87
2021/07/12 04:22:18;;;;;;;5.30;2.58;;;17.10;79.70;;;;;;5008733;28;20026;-88
2021/07/12 04:24:44;;;;;;;3.97;2.35;;;17.10;79.60;;;;;;5011946;28;20030;-89
2021/07/12 04:27:09;;;;;;;4.43;2.20;;;17.00;80.70;;;;;;5000847;28;20026;-89
2021/07/12 04:29:35;;;;;;;4.70;2.47;;;17.00;79.50;;;;;;5005631;28;20044;-91
2021/07/12 04:32:02;;;;;;;5.03;2.50;;;17.00;80.10;;;;;;5010217;28;20041;-91
2021/07/12 04:34:31;;;;;;;5.18;2.60;;;17.10;79.60;;;;;;5009743;28;20048;-88
2021/07/12 04:36:56;;;;;;;4.45;2.70;;;17.00;79.80;;;;;;5009882;28;20037;-91
2021/07/12 04:39:22;;;;;;;5.00;2.90;;;17.10;79.90;;;;;;5011978;28;20088;-91
2021/07/12 04:41:48;;;;;;;4.03;2.92;;;17.10;80.10;;;;;;5010143;28;20504;-91
2021/07/12 04:44:14;;;;;;;6.18;2.50;;;17.10;80.50;;;;;;5007394;28;20030;-90
2021/07/12 04:46:39;;;;;;;4.85;2.40;;;17.10;80.40;;;;;;5009876;28;20025;-90
2021/07/12 04:49:05;;;;;;;3.40;2.42;;;17.10;80.10;;;;;;5010145;28;20037;-91
2021/07/12 04:51:32;;;;;;;4.20;2.60;;;17.10;80.20;;;;;;5011821;28;20037;-91
2021/07/12 04:53:58;;;;;;;4.85;2.80;;;17.10;79.90;;;;;;5007806;28;20022;-91
2021/07/12 04:56:23;;;;;;;3.30;2.60;;;17.10;79.80;;;;;;5008846;28;20391;-86
2021/07/12 04:58:49;;;;;;;3.83;2.33;;;17.10;80.20;;;;;;5003095;28;20037;-85
2021/07/12 05:01:16;;;;;;;4.80;2.70;;;17.20;80.50;;;;;;5008253;28;20121;-92
2021/07/12 05:03:42;;;;;;;4.05;2.75;;;17.10;80.20;;;;;;5012439;28;20502;-88
2021/07/12 05:06:09;;;;;;;3.05;2.70;;;17.20;80.10;;;;;;5009436;28;20398;-88
2021/07/12 05:08:34;;;;;;;3.13;2.53;;;17.20;80.10;;;;;;5010107;28;20494;-88
2021/07/12 05:11:00;;;;;;;3.95;2.50;;;17.10;80.70;;;;;;5008607;28;20037;-87
2021/07/12 05:13:29;;;;;;;2.80;2.40;;;17.10;81.30;;;;;;5009046;28;20505;-87
2021/07/12 05:15:55;;;;;;;5.55;2.70;;;17.10;80.40;;;;;;4997210;28;20486;-88
2021/07/12 05:18:20;;;;;;;4.95;2.85;;;17.10;80.80;;;;;;4996390;28;20026;-87
2021/07/12 05:20:46;;;;;;;4.10;2.70;;;17.10;81.40;;;;;;4999373;28;20038;-88
2021/07/12 05:23:12;;;;;;;5.40;2.80;;;17.10;81.40;;;;;;5001840;28;20797;-90
2021/07/12 05:25:37;;;;;;;3.72;2.35;;;17.10;81.50;;;;;;4994108;28;20034;-91
2021/07/12 05:28:06;;;;;;;5.72;3.08;;;17.20;82.00;;;;;;4995016;28;20026;-90
2021/07/12 05:30:33;;;;;;;4.30;2.50;;;17.20;81.30;;;;;;5002197;28;20030;-89
2021/07/12 05:32:59;;;;;;;5.63;3.00;;;17.10;81.40;;;;;;5000681;28;20113;-89
2021/07/12 05:35:24;;;;;;;3.47;2.80;;;17.10;82.30;;;;;;5007324;28;20474;-90
2021/07/12 05:37:50;;;;;;;4.85;2.90;;;17.10;82.50;;;;;;5002721;28;20022;-88
2021/07/12 05:40:16;;;;;;;3.40;2.40;;;17.10;82.50;;;;;;4999191;28;20033;-88
2021/07/12 05:42:42;;;;;;;6.03;3.05;;;17.00;82.50;;;;;;5008290;28;20026;-89
2021/07/12 05:45:08;;;;;;;4.10;3.17;;;17.00;82.50;;;;;;5003554;28;20072;-91
2021/07/12 05:47:34;;;;;;;6.32;3.10;;;17.00;82.70;;;;;;4995877;28;20030;-89
2021/07/12 05:50:00;;;;;;;5.82;3.10;;;17.10;82.70;;;;;;5002114;28;20034;-92
2021/07/12 05:52:31;;;;;;;4.20;3.03;;;17.10;82.50;;;;;;4998461;28;20510;-91
2021/07/12 05:54:57;;;;;;;6.93;3.28;;;17.10;83.30;;;;;;5001848;28;20066;-88
2021/07/12 05:57:23;;;;;;;4.38;2.97;;;17.10;83.00;;;;;;5014465;28;20394;-89
2021/07/12 05:59:48;;;;;;;3.22;2.85;;;17.10;83.60;;;;;;5006639;28;20018;-90
2021/07/12 06:02:14;;;;;;;4.93;3.13;;;17.10;84.40;;;;;;5004747;28;20031;-87
2021/07/12 06:04:40;;;;;;;4.40;3.03;;;17.10;83.70;;;;;;5005817;28;20029;-92
2021/07/12 06:07:05;;;;;;;6.32;3.30;;;17.00;83.00;;;;;;5009638;28;20577;-87
2021/07/12 06:09:31;;;;;;;4.97;2.83;;;17.00;83.20;;;;;;5007030;28;20598;-88
2021/07/12 06:11:57;;;;;;;4.75;3.25;;;16.90;84.00;;;;;;5004502;28;20041;-89
2021/07/12 06:14:22;;;;;;;2.70;2.50;;;16.80;84.80;;;;;;5004748;28;20018;-91
2021/07/12 06:16:48;;;;;;;4.30;2.30;;;16.80;84.90;;;;;;5005787;28;20049;-90
2021/07/12 06:19:14;;;;;;;3.40;2.67;;;16.70;84.40;;;;;;5006253;28;20506;-83
2021/07/12 06:21:39;;;;;;;3.78;2.67;;;16.70;84.60;;;;;;5010379;28;20061;-89
2021/07/12 06:24:05;;;;;;;2.35;2.08;;;16.60;84.40;;;;;;5010196;28;20030;-84
2021/07/12 06:26:31;;;;;;;2.53;1.58;;;16.60;87.60;;;;;;5007031;28;20037;-84
2021/07/12 06:28:56;;;;;;;2.70;1.17;;;16.40;89.20;;;;;;5004105;28;20048;-87
2021/07/12 06:31:22;;;;;;;6.78;1.27;;;15.90;91.40;;;;;;5009739;28;20724;-88
2021/07/12 06:33:47;;;;;;;1.15;0.90;;;15.50;93.00;;;;;;5009320;28;20604;-84
2021/07/12 06:36:13;;;;;;;2.47;0.75;;;15.40;94.90;;;;;;5013097;28;20042;-86
2021/07/12 06:38:39;;;;;;;3.35;1.00;;;15.30;95.30;;;;;;5012286;28;20482;-81
2021/07/12 06:41:05;;;;;;;3.30;1.10;;;15.20;96.10;;;;;;5009340;28;20022;-81
2021/07/12 06:43:31;;;;;;;2.05;0.95;;;15.20;96.40;;;;;;5012409;28;20049;-81
2021/07/12 06:46:00;;;;;;;7.40;1.08;;;15.10;96.60;;;;;;5010283;28;20065;-82
2021/07/12 06:48:26;;;;;;;3.08;1.08;;;15.10;97.10;;;;;;5012502;28;20022;-82
2021/07/12 06:50:53;;;;;;;6.25;0.93;;;15.00;97.30;;;;;;5008202;28;20030;-83
2021/07/12 06:53:19;;;;;;;3.47;1.05;;;15.00;97.60;;;;;;5006063;28;20026;-83
2021/07/12 06:55:44;;;;;;;2.90;1.38;;;15.00;97.80;;;;;;5006063;28;20044;-82
2021/07/12 06:58:12;;;;;;;2.28;1.00;;;15.00;98.00;;;;;;5011351;28;20037;-78
2021/07/12 07:00:39;;;;;;;3.10;1.10;;;14.90;98.00;;;;;;5012638;28;20124;-80
2021/07/12 07:03:06;;;;;;;2.08;0.90;;;15.00;98.30;;;;;;5010764;28;20036;-78
2021/07/12 07:05:32;;;;;;;1.30;0.90;;;15.00;98.40;;;;;;5008551;28;20475;-78
2021/07/12 07:07:58;;;;;;;2.15;1.00;;;15.00;98.40;;;;;;5002061;28;20101;-79
2021/07/12 07:10:24;;;;;;;1.65;1.05;;;15.00;98.40;;;;;;4997643;28;20499;-78
2021/07/12 07:12:49;;;;;;;1.48;0.98;;;15.00;98.40;;;;;;5012246;28;20029;-78
2021/07/12 07:15:15;;;;;;;1.27;0.90;;;15.10;98.50;;;;;;5013544;28;20038;-78
2021/07/12 07:17:41;;;;;;;1.25;0.82;;;15.10;98.50;;;;;;5010403;28;20101;-78
2021/07/12 07:20:07;;;;;;;3.15;0.90;;;15.10;98.50;;;;;;5009904;28;20030;-78
2021/07/12 07:22:33;;;;;;;2.13;0.90;;;15.10;98.50;;;;;;5004480;28;20049;-78
2021/07/12 07:24:59;;;;;;;1.83;0.95;;;15.20;98.50;;;;;;5000392;28;20084;-78
2021/07/12 07:27:24;;;;;;;1.85;0.93;;;15.10;98.50;;;;;;4995246;28;20030;-78
2021/07/12 07:29:50;;;;;;;1.55;1.35;;;15.20;98.50;;;;;;4999832;28;20637;-78
2021/07/12 07:32:16;;;;;;;1.73;1.60;;;15.10;98.40;;;;;;5001654;28;20034;-77
2021/07/12 07:34:43;;;;;;;6.07;1.90;;;15.00;98.30;;;;;;5006238;28;20022;-76
2021/07/12 07:37:09;;;;;;;2.58;1.83;;;15.00;98.30;;;;;;5010928;28;20112;-76
2021/07/12 07:39:35;;;;;;;2.75;1.85;;;15.10;98.40;;;;;;5010175;28;20090;-79
2021/07/12 07:42:01;;;;;;;3.40;2.20;;;15.20;98.40;;;;;;5006771;28;20041;-76
2021/07/12 07:44:27;;;;;;;3.15;2.50;;;15.20;98.40;;;;;;5007318;28;20026;-76
2021/07/12 07:46:53;;;;;;;4.10;2.65;;;15.20;98.30;;;;;;5009260;28;20032;-76
2021/07/12 07:49:19;;;;;;;2.85;2.53;;;15.30;98.30;;;;;;5008729;28;20022;-75
2021/07/12 07:51:44;;;;;;;6.15;2.95;;;15.30;98.30;;;;;;5010641;28;20057;-76
2021/07/12 07:54:11;;;;;;;3.28;2.45;;;15.30;98.20;;;;;;5008685;28;20584;-78
2021/07/12 07:56:38;;;;;;;8.32;2.85;;;15.40;98.20;;;;;;5008839;28;20034;-76
2021/07/12 07:59:05;;;;;;;3.90;2.78;;;15.40;98.10;;;;;;5011760;28;20022;-76
2021/07/12 08:01:31;;;;;;;3.42;2.70;;;15.50;98.10;;;;;;5009308;28;20418;-75
2021/07/12 08:03:57;;;;;;;5.75;2.75;;;15.50;98.00;;;;;;5010325;28;20109;-80
2021/07/12 08:06:23;;;;;;;4.38;3.03;;;15.50;98.00;;;;;;5005345;28;20113;-76
2021/07/12 08:08:49;;;;;;;3.47;2.60;;;15.30;97.70;;;;;;5008865;28;20427;-75
2021/07/12 08:11:14;;;;;;;4.65;2.70;;;15.40;97.90;;;;;;5009488;28;20551;-75
2021/07/12 08:13:40;;;;;;;5.13;2.55;;;15.20;97.70;;;;;;5007840;28;20570;-76
2021/07/12 08:16:07;;;;;;;4.90;3.10;;;15.20;97.80;;;;;;5009164;28;20033;-75
2021/07/12 08:18:33;;;;;;;6.72;2.90;;;15.20;97.80;;;;;;5011575;28;20029;-74
2021/07/12 08:20:58;;;;;;;4.00;3.30;;;15.20;97.90;;;;;;5009002;28;20520;-75
2021/07/12 08:23:24;;;;;;;6.53;3.35;;;15.20;97.90;;;;;;5004496;28;20034;-77
2021/07/12 08:25:50;;;;;;;5.78;3.10;;;15.20;97.80;;;;;;5009453;28;20113;-77
2021/07/12 08:28:16;;;;;;;5.05;3.35;;;15.30;97.90;;;;;;5008022;28;20077;-75
2021/07/12 08:30:42;;;;;;;4.22;3.10;;;15.30;97.90;;;;;;5011202;28;20081;-75
2021/07/12 08:33:08;;;;;;;6.57;3.30;;;15.30;97.90;;;;;;4997287;28;20027;-75
2021/07/12 08:35:34;;;;;;;4.45;2.97;;;15.60;98.00;;;;;;5006254;28;20476;-76
2021/07/12 08:37:59;;;;;;;4.22;2.80;;;15.70;98.00;;;;;;5008874;28;20565;-74
2021/07/12 08:40:28;;;;;;;3.63;2.72;;;15.70;97.80;;;;;;5008303;28;20030;-75
2021/07/12 08:42:57;;;;;;;3.53;2.55;;;15.80;97.90;;;;;;5017452;28;20076;-75
2021/07/12 08:45:24;;;;;;;4.00;2.80;;;15.80;97.70;;;;;;5010133;28;20137;-75
2021/07/12 08:47:50;;;;;;;3.65;2.45;;;15.80;98.10;;;;;;5005397;28;20036;-76
2021/07/12 08:50:16;;;;;;;5.93;3.10;;;15.80;97.70;;;;;;5001667;28;20105;-76
2021/07/12 08:52:44;;;;;;;4.60;2.80;;;15.70;97.50;;;;;;5007971;28;20034;-74
2021/07/12 08:55:11;;;;;;;3.85;2.70;;;15.70;97.50;;;;;;4998401;28;20050;-75
2021/07/12 08:57:37;;;;;;;2.83;2.42;;;15.70;97.40;;;;;;4992738;28;20089;-74
2021/07/12 09:00:08;;;;;;;3.53;2.63;;;15.60;97.40;;;;;;4993813;28;20034;-74
2021/07/12 09:02:36;;;;;;;5.25;2.40;;;15.70;97.60;;;;;;4995209;28;20447;-74
2021/07/12 09:05:03;;;;;;;3.65;2.15;;;15.50;97.20;;;;;;4993720;28;20076;-74
2021/07/12 09:07:29;;;;;;;2.50;2.10;;;15.50;97.30;;;;;;5006252;28;20113;-76
2021/07/12 09:10:09;;;;;;;3.80;2.20;;;15.60;97.50;;;;;;4990048;28;20105;-76
2021/07/12 09:12:40;;;;;;;3.15;2.10;;;15.50;97.20;;;;;;4992375;28;20019;-77
2021/07/12 09:15:15;;;;;;;2.28;1.80;;;15.50;97.20;;;;;;4993107;28;20618;-77
2021/07/12 09:17:43;;;;;;;3.35;1.85;;;15.50;97.20;;;;;;4993707;28;20044;-78
2021/07/12 09:20:11;;;;;;;2.92;1.70;;;15.50;97.10;;;;;;4999941;28;20518;-76
2021/07/12 09:22:41;;;;;;;5.43;2.13;;;15.50;97.00;;;;;;5004865;28;20038;-77
2021/07/12 09:25:09;;;;;;;2.92;1.50;;;15.50;97.00;;;;;;5002955;28;20041;-77
2021/07/12 09:27:39;;;;;;;3.90;1.85;;;15.70;97.00;;;;;;4992542;28;20026;-77
2021/07/12 09:30:12;;;;;;;2.95;1.75;;;16.00;97.50;;;;;;4992204;28;20109;-76
2021/07/12 09:32:40;;;;;;;3.45;1.70;;;16.20;97.40;;;;;;4993485;28;20126;-75
2021/07/12 09:35:09;;;;;;;4.13;1.70;;;16.30;96.30;;;;;;4992684;28;20403;-74
2021/07/12 09:37:40;;;;;;;1.95;1.60;;;16.20;96.50;;;;;;4991596;28;20058;-74
2021/07/12 09:40:15;;;;;;;2.05;1.65;;;15.90;95.90;;;;;;4992262;28;20508;-74
2021/07/12 09:42:43;;;;;;;4.28;1.80;;;15.90;96.30;;;;;;5000616;28;20513;-75
2021/07/12 09:45:11;;;;;;;2.20;1.50;;;15.80;96.40;;;;;;4992941;28;20018;-74
2021/07/12 09:47:39;;;;;;;3.78;1.70;;;15.80;96.70;;;;;;4992559;28;20027;-76
2021/07/12 09:50:12;;;;;;;3.40;1.70;;;15.70;95.90;;;;;;4996274;28;20018;-77
2021/07/12 09:52:40;;;;;;;3.13;1.50;;;15.70;96.50;;;;;;4996956;28;20046;-76
2021/07/12 09:55:07;;;;;;;3.42;1.52;;;15.70;96.50;;;;;;4992959;28;20117;-76
2021/07/12 09:57:33;;;;;;;4.00;1.70;;;15.60;96.40;;;;;;4992464;28;20042;-77
2021/07/12 10:00:10;;;;;;;2.45;1.77;;;15.60;96.40;;;;;;4999019;28;20579;-76
2021/07/12 10:02:37;;;;;;;2.15;1.40;;;15.60;96.80;;;;;;4990972;28;20121;-76
2021/07/12 10:05:09;;;;;;;4.97;1.55;;;15.50;96.30;;;;;;4991519;28;20029;-77
2021/07/12 10:07:35;;;;;;;2.15;1.35;;;15.50;96.30;;;;;;4987312;28;20027;-78
2021/07/12 10:10:13;;;;;;;3.75;1.95;;;15.50;96.60;;;;;;4994600;28;20034;-76
2021/07/12 10:12:40;;;;;;;3.63;1.60;;;15.50;96.30;;;;;;4993847;28;20164;-77
2021/07/12 10:15:07;;;;;;;3.63;1.50;;;15.60;96.60;;;;;;5001552;28;20465;-78
2021/07/12 10:17:33;;;;;;;6.05;1.65;;;15.80;96.90;;;;;;5001745;28;20107;-79
2021/07/12 10:19:58;;;;;;;3.55;1.40;;;15.90;96.80;;;;;;5002120;28;20061;-77
2021/07/12 10:22:25;;;;;;;5.22;1.80;;;16.00;96.40;;;;;;4995479;28;20026;-80
2021/07/12 10:24:51;;;;;;;4.20;1.58;;;16.10;96.50;;;;;;5012456;28;20078;-78
2021/07/12 10:27:28;;;;;;;4.78;1.77;;;16.00;96.50;;;;;;5010956;28;20033;-79
2021/07/12 10:30:17;;;;;;;3.65;1.70;;;16.20;96.70;;;;;;5009322;28;20049;-79
2021/07/12 10:32:51;;;;;;;3.00;1.80;;;16.30;96.40;;;;;;5011012;28;20034;-78
2021/07/12 10:35:53;;;;;;;4.63;2.15;;;16.20;96.10;;;;;;5006066;28;20045;-79
2021/07/12 10:38:36;;;;;;;4.20;1.70;;;16.40;96.90;;;;;;5006844;28;20022;-79
2021/07/12 10:41:23;;;;;;;4.25;1.67;;;16.60;97.00;;;;;;5004016;28;20022;-79
2021/07/12 10:44:00;;;;;;;3.95;1.50;;;16.40;95.90;;;;;;4999790;28;20038;-79
2021/07/12 10:46:32;;;;;;;3.10;1.50;;;16.40;95.90;;;;;;5007664;28;20552;-79
2021/07/12 10:49:24;;;;;;;3.20;1.58;;;16.60;96.00;;;;;;4995761;28;20030;-78
2021/07/12 10:51:50;;;;;;;4.18;1.73;;;16.90;97.00;;;;;;5013628;28;20038;-79
2021/07/12 10:54:15;;;;;;;1.88;1.33;;;17.10;96.20;;;;;;5008282;28;20030;-78
2021/07/12 10:56:52;;;;;;;4.18;1.52;;;16.80;95.40;;;;;;5003221;28;20042;-78
2021/07/12 10:59:27;;;;;;;6.78;1.60;;;16.70;95.70;;;;;;5002794;28;20037;-78
2021/07/12 11:01:54;;;;;;;2.38;1.35;;;16.80;96.60;;;;;;4999813;28;20064;-78
2021/07/12 11:04:37;;;;;;;4.78;1.50;;;17.00;96.50;;;;;;5009114;28;20033;-78
2021/07/12 11:07:05;;;;;;;5.10;1.58;;;17.40;96.60;;;;;;4997529;28;20141;-78
2021/07/12 11:09:47;;;;;;;4.18;1.48;;;17.60;95.50;;;;;;5012883;28;20120;-77
2021/07/12 11:12:33;;;;;;;3.30;1.33;;;17.60;95.00;;;;;;5003123;28;20026;-77
2021/07/12 11:15:29;;;;;;;3.05;1.40;;;17.50;95.10;;;;;;5021809;28;20022;-77
2021/07/12 11:18:09;;;;;;;2.78;1.58;;;17.40;94.70;;;;;;5019076;28;20034;-77
2021/07/12 11:20:43;;;;;;;2.83;1.50;;;17.30;94.70;;;;;;5009109;28;20079;-79
2021/07/12 11:23:35;;;;;;;3.28;1.52;;;17.30;95.70;;;;;;5004939;28;20541;-78
2021/07/12 11:26:01;;;;;;;3.10;1.20;;;17.50;95.30;;;;;;4931831;29;20040;-77
2021/07/12 11:28:44;;;;;;;4.03;1.63;;;17.80;96.10;;;;;;4947650;29;20051;-78
2021/07/12 11:31:47;;;;;;;4.10;1.40;;;18.10;95.20;;;;;;4947619;28;20027;-77
2021/07/12 11:34:16;;;;;;;2.90;0.90;;;18.40;95.40;;;;;;4928886;29;20106;-81
2021/07/12 11:36:59;;;;;;;3.22;1.08;;;18.50;95.20;;;;;;4949154;29;20856;-78
2021/07/12 11:39:27;;;;;;;3.00;1.05;;;18.50;93.50;;;;;;4951845;29;20035;-78
2021/07/12 11:41:54;;;;;;;4.00;1.10;;;18.20;92.10;;;;;;4949967;29;20206;-78
2021/07/12 11:44:21;;;;;;;3.15;1.30;;;18.10;93.80;;;;;;4951017;29;20039;-79
2021/07/12 11:46:47;;;;;;;2.28;1.00;;;18.00;93.30;;;;;;4952521;29;20047;-79
2021/07/12 11:49:16;;;;;;;2.75;1.05;;;17.70;92.20;;;;;;4936354;29;20053;-78
2021/07/12 11:51:42;;;;;;;4.43;1.50;;;17.70;92.80;;;;;;4935849;29;20079;-79
2021/07/12 11:54:20;;;;;;;2.00;1.08;;;17.70;92.40;;;;;;4952617;29;20043;-79
2021/07/12 11:57:03;;;;;;;1.45;0.93;;;17.90;93.30;;;;;;4951995;28;20532;-78
2021/07/12 11:59:35;;;;;;;3.40;1.00;;;18.30;94.30;;;;;;4951767;29;20019;-78
2021/07/12 12:02:09;;;;;;;2.20;1.00;;;18.50;93.00;;;;;;4955248;28;20093;-79
2021/07/12 12:04:58;;;;;;;2.58;0.90;;;18.50;91.30;;;;;;4997279;28;20025;-79
2021/07/12 12:07:36;;;;;;;2.20;1.00;;;18.70;92.90;;;;;;4996179;28;20026;-79
2021/07/12 12:10:07;;;;;;;2.00;0.90;;;18.80;89.90;;;;;;5010573;28;20022;-79
2021/07/12 12:12:34;;;;;;;4.60;1.00;;;18.90;90.00;;;;;;5012462;28;20483;-79
2021/07/12 12:15:17;;;;;;;2.80;0.88;;;18.90;84.40;;;;;;5009349;28;20477;-79
2021/07/12 12:17:46;;;;;;;1.77;1.00;;;19.10;88.40;;;;;;5009465;28;20034;-79
2021/07/12 12:20:17;;;;;;;5.05;1.20;;;19.20;84.70;;;;;;5009029;28;20025;-78
2021/07/12 12:23:26;;;;;;;1.92;0.70;;;19.20;85.90;;;;;;5010669;28;20038;-79
2021/07/12 12:26:13;;;;;;;2.05;0.60;;;19.00;86.30;;;;;;5000651;28;20038;-79
2021/07/12 12:28:48;;;;;;;2.20;0.98;;;19.10;86.30;;;;;;5007999;28;20045;-79
2021/07/12 12:31:17;;;;;;;1.10;0.80;;;19.10;86.10;;;;;;4993352;28;20037;-79
2021/07/12 12:33:54;;;;;;;2.55;0.90;;;19.10;85.00;;;;;;5010983;28;20026;-79
2021/07/12 12:36:23;;;;;;;2.08;1.00;;;18.90;78.80;;;;;;5005721;28;20077;-79
2021/07/12 12:39:05;;;;;;;0.90;0.65;;;18.80;83.20;;;;;;5006891;28;20030;-79
2021/07/12 12:41:37;;;;;;;2.77;0.90;;;18.70;83.40;;;;;;5009193;28;20026;-79
2021/07/12 12:44:08;;;;;;;2.55;1.00;;;18.50;79.60;;;;;;5007210;28;20022;-79
2021/07/12 12:46:35;;;;;;;1.30;0.68;;;18.10;74.90;;;;;;5008001;28;20033;-79
2021/07/12 12:49:30;;;;;;;2.28;0.93;;;18.00;78.30;;;;;;5010408;28;20021;-79
2021/07/12 12:51:56;;;;;;;1.90;1.00;;;18.00;80.00;;;;;;5006372;28;20105;-79
2021/07/12 12:54:29;;;;;;;2.40;0.95;;;18.00;81.30;;;;;;5010377;28;20022;-79
2021/07/12 12:56:56;;;;;;;;;;;18.10;83.30;;;;;;5008287;28;20038;-79
2021/07/12 12:59:35;;;;;;;1.35;0.88;;;18.30;82.80;;;;;;5007421;28;19909;-79
2021/07/12 13:02:02;;;;;;;2.83;0.85;;;18.40;82.60;;;;;;5008366;28;20121;-79